sensor_id;sensor_type;location;lat;lon;timestamp;P1;durP1;ratioP1;P2;durP2;ratioP2
20637;SDS011;10478;49.004;8.470;2024-01-15T00:02:11;49.67;;;13.32;;
20637;SDS011;10478;49.004;8.470;2024-01-15T00:04:37;43.83;;;14.32;;
20637;SDS011;10478;49.004;8.470;2024-01-15T00:07:06;37.05;;;13.70;;
20637;SDS011;10478;49.004;8.470;2024-01-15T00:09:32;37.30;;;12.65;;
20637;SDS011;10478;49.004;8.470;2024-01-15T00:11:58;49.70;;;14.70;;
20637;SDS011;10478;49.004;8.470;2024-01-15T00:14:24;42.78;;;12.95;;
20637;SDS011;10478;49.004;8.470;2024-01-15T00:16:49;43.10;;;14.10;;
20637;SDS011;10478;49.004;8.470;2024-01-15T00:19:16;45.10;;;15.43;;
20637;SDS011;10478;49.004;8.470;2024-01-15T00:21:42;44.33;;;14.30;;
20637;SDS011;10478;49.004;8.470;2024-01-15T00:24:08;47.08;;;16.08;;
20637;SDS011;10478;49.004;8.470;2024-01-15T00:26:33;46.70;;;15.75;;
20637;SDS011;10478;49.004;8.470;2024-01-15T00:28:59;50.90;;;14.00;;
20637;SDS011;10478;49.004;8.470;2024-01-15T00:31:25;48.95;;;17.30;;
20637;SDS011;10478;49.004;8.470;2024-01-15T00:33:51;47.55;;;16.38;;
20637;SDS011;10478;49.004;8.470;2024-01-15T00:36:17;49.63;;;15.65;;
20637;SDS011;10478;49.004;8.470;2024-01-15T00:38:43;49.85;;;15.75;;
20637;SDS011;10478;49.004;8.470;2024-01-15T00:41:09;58.42;;;15.35;;
20637;SDS011;10478;49.004;8.470;2024-01-15T00:43:35;62.00;;;17.23;;
20637;SDS011;10478;49.004;8.470;2024-01-15T00:46:04;53.08;;;15.60;;
20637;SDS011;10478;49.004;8.470;2024-01-15T00:48:30;45.30;;;16.55;;
20637;SDS011;10478;49.004;8.470;2024-01-15T00:50:55;49.10;;;16.48;;
20637;SDS011;10478;49.004;8.470;2024-01-15T00:53:21;42.95;;;14.18;;
20637;SDS011;10478;49.004;8.470;2024-01-15T00:55:47;48.08;;;14.98;;
20637;SDS011;10478;49.004;8.470;2024-01-15T00:58:15;45.22;;;16.30;;
20637;SDS011;10478;49.004;8.470;2024-01-15T01:00:41;49.03;;;15.15;;
20637;SDS011;10478;49.004;8.470;2024-01-15T01:03:06;46.47;;;14.95;;
20637;SDS011;10478;49.004;8.470;2024-01-15T01:05:32;51.05;;;15.63;;
20637;SDS011;10478;49.004;8.470;2024-01-15T01:07:58;39.65;;;14.65;;
20637;SDS011;10478;49.004;8.470;2024-01-15T01:10:24;50.70;;;16.50;;
20637;SDS011;10478;49.004;8.470;2024-01-15T01:12:49;41.95;;;14.82;;
20637;SDS011;10478;49.004;8.470;2024-01-15T01:15:14;52.47;;;16.45;;
20637;SDS011;10478;49.004;8.470;2024-01-15T01:17:40;55.88;;;15.73;;
20637;SDS011;10478;49.004;8.470;2024-01-15T01:20:05;54.65;;;16.27;;
20637;SDS011;10478;49.004;8.470;2024-01-15T01:22:33;44.85;;;14.63;;
20637;SDS011;10478;49.004;8.470;2024-01-15T01:24:58;44.90;;;16.05;;
20637;SDS011;10478;49.004;8.470;2024-01-15T01:27:24;47.15;;;15.73;;
20637;SDS011;10478;49.004;8.470;2024-01-15T01:29:49;45.33;;;16.55;;
20637;SDS011;10478;49.004;8.470;2024-01-15T01:32:15;42.30;;;15.55;;
20637;SDS011;10478;49.004;8.470;2024-01-15T01:34:41;47.63;;;16.08;;
20637;SDS011;10478;49.004;8.470;2024-01-15T01:37:12;51.72;;;14.93;;
20637;SDS011;10478;49.004;8.470;2024-01-15T01:39:38;49.25;;;14.80;;
20637;SDS011;10478;49.004;8.470;2024-01-15T01:42:04;44.40;;;15.25;;
20637;SDS011;10478;49.004;8.470;2024-01-15T01:44:29;49.45;;;15.07;;
20637;SDS011;10478;49.004;8.470;2024-01-15T01:46:55;53.33;;;15.23;;
20637;SDS011;10478;49.004;8.470;2024-01-15T01:49:22;46.08;;;15.35;;
20637;SDS011;10478;49.004;8.470;2024-01-15T01:51:48;54.78;;;15.80;;
20637;SDS011;10478;49.004;8.470;2024-01-15T01:54:13;48.53;;;13.85;;
20637;SDS011;10478;49.004;8.470;2024-01-15T01:56:40;46.75;;;15.98;;
20637;SDS011;10478;49.004;8.470;2024-01-15T01:59:06;53.70;;;15.15;;
20637;SDS011;10478;49.004;8.470;2024-01-15T02:01:33;50.08;;;15.43;;
20637;SDS011;10478;49.004;8.470;2024-01-15T02:03:58;43.35;;;16.10;;
20637;SDS011;10478;49.004;8.470;2024-01-15T02:06:24;55.58;;;15.48;;
20637;SDS011;10478;49.004;8.470;2024-01-15T02:08:50;43.38;;;15.50;;
20637;SDS011;10478;49.004;8.470;2024-01-15T02:11:15;49.88;;;16.50;;
20637;SDS011;10478;49.004;8.470;2024-01-15T02:13:40;55.95;;;15.68;;
20637;SDS011;10478;49.004;8.470;2024-01-15T02:16:06;48.92;;;15.93;;
20637;SDS011;10478;49.004;8.470;2024-01-15T02:18:41;54.92;;;16.30;;
20637;SDS011;10478;49.004;8.470;2024-01-15T02:21:07;51.72;;;16.08;;
20637;SDS011;10478;49.004;8.470;2024-01-15T02:23:33;50.47;;;16.58;;
20637;SDS011;10478;49.004;8.470;2024-01-15T02:25:58;54.08;;;14.43;;
20637;SDS011;10478;49.004;8.470;2024-01-15T02:28:24;56.97;;;17.55;;
20637;SDS011;10478;49.004;8.470;2024-01-15T02:30:49;47.28;;;16.25;;
20637;SDS011;10478;49.004;8.470;2024-01-15T02:33:15;57.55;;;16.42;;
20637;SDS011;10478;49.004;8.470;2024-01-15T02:35:40;42.92;;;15.70;;
20637;SDS011;10478;49.004;8.470;2024-01-15T02:38:06;62.08;;;16.55;;
20637;SDS011;10478;49.004;8.470;2024-01-15T02:40:32;41.95;;;15.60;;
20637;SDS011;10478;49.004;8.470;2024-01-15T02:42:59;43.08;;;15.20;;
20637;SDS011;10478;49.004;8.470;2024-01-15T02:45:24;47.03;;;16.05;;
20637;SDS011;10478;49.004;8.470;2024-01-15T02:47:50;53.40;;;16.77;;
20637;SDS011;10478;49.004;8.470;2024-01-15T02:50:15;42.75;;;15.27;;
20637;SDS011;10478;49.004;8.470;2024-01-15T02:52:41;54.50;;;15.77;;
20637;SDS011;10478;49.004;8.470;2024-01-15T02:55:07;47.45;;;15.32;;
20637;SDS011;10478;49.004;8.470;2024-01-15T02:57:33;47.10;;;16.25;;
20637;SDS011;10478;49.004;8.470;2024-01-15T02:59:58;58.15;;;17.17;;
20637;SDS011;10478;49.004;8.470;2024-01-15T03:02:24;50.95;;;14.57;;
20637;SDS011;10478;49.004;8.470;2024-01-15T03:04:49;54.22;;;16.02;;
20637;SDS011;10478;49.004;8.470;2024-01-15T03:07:15;43.38;;;15.18;;
20637;SDS011;10478;49.004;8.470;2024-01-15T03:09:41;39.63;;;14.02;;
20637;SDS011;10478;49.004;8.470;2024-01-15T03:12:09;45.45;;;14.50;;
20637;SDS011;10478;49.004;8.470;2024-01-15T03:14:35;55.70;;;16.75;;
20637;SDS011;10478;49.004;8.470;2024-01-15T03:17:00;45.60;;;16.30;;
20637;SDS011;10478;49.004;8.470;2024-01-15T03:19:26;43.30;;;14.80;;
20637;SDS011;10478;49.004;8.470;2024-01-15T03:21:51;47.08;;;15.50;;
20637;SDS011;10478;49.004;8.470;2024-01-15T03:24:16;43.25;;;14.40;;
20637;SDS011;10478;49.004;8.470;2024-01-15T03:26:42;44.90;;;16.05;;
20637;SDS011;10478;49.004;8.470;2024-01-15T03:29:07;47.20;;;15.77;;
20637;SDS011;10478;49.004;8.470;2024-01-15T03:31:33;49.03;;;15.38;;
20637;SDS011;10478;49.004;8.470;2024-01-15T03:33:58;47.75;;;16.00;;
20637;SDS011;10478;49.004;8.470;2024-01-15T03:36:24;41.13;;;15.27;;
20637;SDS011;10478;49.004;8.470;2024-01-15T03:38:49;40.38;;;13.80;;
20637;SDS011;10478;49.004;8.470;2024-01-15T03:41:14;42.42;;;14.52;;
20637;SDS011;10478;49.004;8.470;2024-01-15T03:43:40;45.90;;;15.13;;
20637;SDS011;10478;49.004;8.470;2024-01-15T03:46:05;43.83;;;14.82;;
20637;SDS011;10478;49.004;8.470;2024-01-15T03:48:32;41.88;;;15.25;;
20637;SDS011;10478;49.004;8.470;2024-01-15T03:50:57;49.78;;;15.32;;
20637;SDS011;10478;49.004;8.470;2024-01-15T03:53:22;41.22;;;13.32;;
20637;SDS011;10478;49.004;8.470;2024-01-15T03:55:48;58.63;;;17.35;;
20637;SDS011;10478;49.004;8.470;2024-01-15T03:58:14;40.58;;;14.73;;
20637;SDS011;10478;49.004;8.470;2024-01-15T04:00:40;38.35;;;13.98;;
20637;SDS011;10478;49.004;8.470;2024-01-15T04:03:06;40.30;;;15.75;;
20637;SDS011;10478;49.004;8.470;2024-01-15T04:05:31;45.63;;;14.95;;
20637;SDS011;10478;49.004;8.470;2024-01-15T04:07:57;47.95;;;16.33;;
20637;SDS011;10478;49.004;8.470;2024-01-15T04:10:22;40.67;;;14.63;;
20637;SDS011;10478;49.004;8.470;2024-01-15T04:12:48;40.28;;;13.75;;
20637;SDS011;10478;49.004;8.470;2024-01-15T04:15:13;49.33;;;15.75;;
20637;SDS011;10478;49.004;8.470;2024-01-15T04:17:39;45.17;;;15.23;;
20637;SDS011;10478;49.004;8.470;2024-01-15T04:20:04;55.80;;;16.98;;
20637;SDS011;10478;49.004;8.470;2024-01-15T04:22:31;37.25;;;14.60;;
20637;SDS011;10478;49.004;8.470;2024-01-15T04:24:57;42.00;;;13.88;;
20637;SDS011;10478;49.004;8.470;2024-01-15T04:27:22;45.63;;;16.13;;
20637;SDS011;10478;49.004;8.470;2024-01-15T04:29:48;42.65;;;14.15;;
20637;SDS011;10478;49.004;8.470;2024-01-15T04:32:13;38.92;;;14.57;;
20637;SDS011;10478;49.004;8.470;2024-01-15T04:34:39;41.83;;;14.68;;
20637;SDS011;10478;49.004;8.470;2024-01-15T04:37:05;40.55;;;14.82;;
20637;SDS011;10478;49.004;8.470;2024-01-15T04:39:30;46.78;;;14.18;;
20637;SDS011;10478;49.004;8.470;2024-01-15T04:41:56;48.33;;;16.30;;
20637;SDS011;10478;49.004;8.470;2024-01-15T04:44:22;48.28;;;15.25;;
20637;SDS011;10478;49.004;8.470;2024-01-15T04:46:47;43.25;;;14.63;;
20637;SDS011;10478;49.004;8.470;2024-01-15T04:49:13;39.47;;;15.60;;
20637;SDS011;10478;49.004;8.470;2024-01-15T04:51:38;38.20;;;14.30;;
20637;SDS011;10478;49.004;8.470;2024-01-15T04:54:03;49.08;;;15.43;;
20637;SDS011;10478;49.004;8.470;2024-01-15T04:56:29;42.00;;;15.30;;
20637;SDS011;10478;49.004;8.470;2024-01-15T04:58:55;44.08;;;14.45;;
20637;SDS011;10478;49.004;8.470;2024-01-15T05:01:20;48.80;;;16.05;;
20637;SDS011;10478;49.004;8.470;2024-01-15T05:03:45;43.75;;;16.10;;
20637;SDS011;10478;49.004;8.470;2024-01-15T05:06:11;37.03;;;14.50;;
20637;SDS011;10478;49.004;8.470;2024-01-15T06:18:26;41.78;;;17.25;;
20637;SDS011;10478;49.004;8.470;2024-01-15T06:20:52;40.42;;;16.00;;
20637;SDS011;10478;49.004;8.470;2024-01-15T06:33:38;43.85;;;14.50;;
20637;SDS011;10478;49.004;8.470;2024-01-15T06:36:04;43.50;;;16.02;;
20637;SDS011;10478;49.004;8.470;2024-01-15T06:38:30;40.50;;;15.00;;
20637;SDS011;10478;49.004;8.470;2024-01-15T06:40:56;45.90;;;16.15;;
20637;SDS011;10478;49.004;8.470;2024-01-15T06:43:21;37.92;;;14.60;;
20637;SDS011;10478;49.004;8.470;2024-01-15T06:45:47;40.30;;;16.02;;
20637;SDS011;10478;49.004;8.470;2024-01-15T06:48:13;42.70;;;16.33;;
20637;SDS011;10478;49.004;8.470;2024-01-15T06:50:41;45.95;;;16.00;;
20637;SDS011;10478;49.004;8.470;2024-01-15T06:53:06;38.75;;;15.75;;
20637;SDS011;10478;49.004;8.470;2024-01-15T06:55:32;42.95;;;15.50;;
20637;SDS011;10478;49.004;8.470;2024-01-15T06:57:58;43.05;;;14.80;;
20637;SDS011;10478;49.004;8.470;2024-01-15T07:00:23;42.08;;;15.73;;
20637;SDS011;10478;49.004;8.470;2024-01-15T07:02:49;46.33;;;15.15;;
20637;SDS011;10478;49.004;8.470;2024-01-15T07:05:15;54.35;;;15.73;;
20637;SDS011;10478;49.004;8.470;2024-01-15T07:07:40;44.15;;;16.55;;
20637;SDS011;10478;49.004;8.470;2024-01-15T07:10:06;44.88;;;16.05;;
20637;SDS011;10478;49.004;8.470;2024-01-15T07:12:32;38.55;;;14.88;;
20637;SDS011;10478;49.004;8.470;2024-01-15T07:14:58;50.80;;;17.42;;
20637;SDS011;10478;49.004;8.470;2024-01-15T07:17:24;47.60;;;15.70;;
20637;SDS011;10478;49.004;8.470;2024-01-15T07:19:49;46.03;;;17.20;;
20637;SDS011;10478;49.004;8.470;2024-01-15T07:22:15;47.30;;;16.42;;
20637;SDS011;10478;49.004;8.470;2024-01-15T07:24:42;53.50;;;16.38;;
20637;SDS011;10478;49.004;8.470;2024-01-15T07:27:08;42.90;;;15.43;;
20637;SDS011;10478;49.004;8.470;2024-01-15T07:29:34;50.00;;;15.88;;
20637;SDS011;10478;49.004;8.470;2024-01-15T07:32:02;45.80;;;16.10;;
20637;SDS011;10478;49.004;8.470;2024-01-15T07:34:28;37.53;;;14.68;;
20637;SDS011;10478;49.004;8.470;2024-01-15T07:42:20;49.97;;;16.92;;
20637;SDS011;10478;49.004;8.470;2024-01-15T07:44:45;36.90;;;14.90;;
20637;SDS011;10478;49.004;8.470;2024-01-15T07:47:11;39.00;;;16.08;;
20637;SDS011;10478;49.004;8.470;2024-01-15T07:49:36;44.05;;;16.85;;
20637;SDS011;10478;49.004;8.470;2024-01-15T07:52:02;50.60;;;15.88;;
20637;SDS011;10478;49.004;8.470;2024-01-15T07:54:28;36.28;;;14.77;;
20637;SDS011;10478;49.004;8.470;2024-01-15T07:56:56;46.45;;;14.70;;
20637;SDS011;10478;49.004;8.470;2024-01-15T07:59:23;40.55;;;15.02;;
20637;SDS011;10478;49.004;8.470;2024-01-15T08:01:49;43.47;;;15.45;;
20637;SDS011;10478;49.004;8.470;2024-01-15T08:04:15;40.88;;;15.35;;
20637;SDS011;10478;49.004;8.470;2024-01-15T08:06:41;45.33;;;16.13;;
20637;SDS011;10478;49.004;8.470;2024-01-15T08:09:06;42.63;;;16.05;;
20637;SDS011;10478;49.004;8.470;2024-01-15T08:11:33;39.60;;;15.18;;
20637;SDS011;10478;49.004;8.470;2024-01-15T08:13:59;41.63;;;15.85;;
20637;SDS011;10478;49.004;8.470;2024-01-15T08:16:25;46.33;;;15.82;;
20637;SDS011;10478;49.004;8.470;2024-01-15T08:18:50;46.22;;;16.58;;
20637;SDS011;10478;49.004;8.470;2024-01-15T08:21:16;43.97;;;15.30;;
20637;SDS011;10478;49.004;8.470;2024-01-15T08:23:41;37.95;;;15.55;;
20637;SDS011;10478;49.004;8.470;2024-01-15T08:26:07;43.38;;;15.88;;
20637;SDS011;10478;49.004;8.470;2024-01-15T08:28:32;43.00;;;16.85;;
20637;SDS011;10478;49.004;8.470;2024-01-15T08:30:58;50.92;;;14.68;;
20637;SDS011;10478;49.004;8.470;2024-01-15T08:33:26;43.67;;;15.00;;
20637;SDS011;10478;49.004;8.470;2024-01-15T08:35:52;43.92;;;15.50;;
20637;SDS011;10478;49.004;8.470;2024-01-15T08:38:18;41.05;;;15.20;;
20637;SDS011;10478;49.004;8.470;2024-01-15T08:58:50;36.42;;;14.07;;
20637;SDS011;10478;49.004;8.470;2024-01-15T09:01:16;41.55;;;13.52;;
20637;SDS011;10478;49.004;8.470;2024-01-15T09:03:41;39.25;;;14.27;;
20637;SDS011;10478;49.004;8.470;2024-01-15T09:11:40;36.67;;;11.98;;
20637;SDS011;10478;49.004;8.470;2024-01-15T09:14:06;38.33;;;14.55;;
20637;SDS011;10478;49.004;8.470;2024-01-15T09:21:43;39.45;;;13.52;;
20637;SDS011;10478;49.004;8.470;2024-01-15T09:24:08;34.85;;;13.75;;
20637;SDS011;10478;49.004;8.470;2024-01-15T09:26:34;37.17;;;14.00;;
20637;SDS011;10478;49.004;8.470;2024-01-15T09:28:59;36.33;;;13.25;;
20637;SDS011;10478;49.004;8.470;2024-01-15T09:31:25;44.25;;;14.23;;
20637;SDS011;10478;49.004;8.470;2024-01-15T09:33:52;32.42;;;13.30;;
20637;SDS011;10478;49.004;8.470;2024-01-15T09:44:28;35.22;;;13.38;;
20637;SDS011;10478;49.004;8.470;2024-01-15T10:02:40;30.90;;;12.65;;
20637;SDS011;10478;49.004;8.470;2024-01-15T10:20:37;29.55;;;11.95;;
20637;SDS011;10478;49.004;8.470;2024-01-15T10:23:03;34.70;;;14.18;;
20637;SDS011;10478;49.004;8.470;2024-01-15T10:25:30;36.42;;;12.95;;
20637;SDS011;10478;49.004;8.470;2024-01-15T10:28:00;38.47;;;15.00;;
20637;SDS011;10478;49.004;8.470;2024-01-15T10:30:27;29.80;;;13.02;;
20637;SDS011;10478;49.004;8.470;2024-01-15T10:32:59;36.08;;;13.55;;
20637;SDS011;10478;49.004;8.470;2024-01-15T10:38:01;38.63;;;12.75;;
20637;SDS011;10478;49.004;8.470;2024-01-15T10:40:28;29.38;;;12.00;;
20637;SDS011;10478;49.004;8.470;2024-01-15T10:42:54;32.58;;;13.38;;
20637;SDS011;10478;49.004;8.470;2024-01-15T10:45:19;38.50;;;13.65;;
20637;SDS011;10478;49.004;8.470;2024-01-15T10:47:45;31.48;;;12.20;;
20637;SDS011;10478;49.004;8.470;2024-01-15T10:50:11;37.60;;;13.32;;
20637;SDS011;10478;49.004;8.470;2024-01-15T10:52:38;34.22;;;12.63;;
20637;SDS011;10478;49.004;8.470;2024-01-15T10:55:08;27.85;;;11.13;;
20637;SDS011;10478;49.004;8.470;2024-01-15T10:57:36;37.08;;;12.30;;
20637;SDS011;10478;49.004;8.470;2024-01-15T11:00:03;28.23;;;12.20;;
20637;SDS011;10478;49.004;8.470;2024-01-15T11:02:35;30.75;;;11.55;;
20637;SDS011;10478;49.004;8.470;2024-01-15T11:05:04;36.60;;;12.38;;
20637;SDS011;10478;49.004;8.470;2024-01-15T11:07:30;29.45;;;11.30;;
20637;SDS011;10478;49.004;8.470;2024-01-15T11:09:56;29.17;;;12.10;;
20637;SDS011;10478;49.004;8.470;2024-01-15T11:12:24;32.40;;;11.55;;
20637;SDS011;10478;49.004;8.470;2024-01-15T11:14:50;30.38;;;12.30;;
20637;SDS011;10478;49.004;8.470;2024-01-15T11:17:24;31.77;;;11.80;;
20637;SDS011;10478;49.004;8.470;2024-01-15T11:20:05;32.78;;;11.68;;
20637;SDS011;10478;49.004;8.470;2024-01-15T11:25:12;32.42;;;12.80;;
20637;SDS011;10478;49.004;8.470;2024-01-15T11:27:43;29.35;;;10.25;;
20637;SDS011;10478;49.004;8.470;2024-01-15T11:30:10;27.17;;;10.45;;
20637;SDS011;10478;49.004;8.470;2024-01-15T11:32:36;30.88;;;12.63;;
20637;SDS011;10478;49.004;8.470;2024-01-15T11:35:04;25.75;;;10.48;;
20637;SDS011;10478;49.004;8.470;2024-01-15T11:42:57;26.83;;;9.77;;
20637;SDS011;10478;49.004;8.470;2024-01-15T11:45:23;26.70;;;10.52;;
20637;SDS011;10478;49.004;8.470;2024-01-15T11:53:13;24.47;;;10.10;;
20637;SDS011;10478;49.004;8.470;2024-01-15T12:06:56;26.75;;;8.90;;
20637;SDS011;10478;49.004;8.470;2024-01-15T12:09:21;25.05;;;9.48;;
20637;SDS011;10478;49.004;8.470;2024-01-15T15:21:16;11.45;;;6.00;;
20637;SDS011;10478;49.004;8.470;2024-01-15T17:51:08;14.18;;;5.40;;
20637;SDS011;10478;49.004;8.470;2024-01-15T17:53:33;13.80;;;6.63;;
20637;SDS011;10478;49.004;8.470;2024-01-15T18:04:27;14.77;;;6.70;;
20637;SDS011;10478;49.004;8.470;2024-01-15T18:30:09;11.68;;;5.85;;
20637;SDS011;10478;49.004;8.470;2024-01-15T18:32:36;12.30;;;5.50;;
20637;SDS011;10478;49.004;8.470;2024-01-15T18:35:11;15.68;;;6.13;;
20637;SDS011;10478;49.004;8.470;2024-01-15T18:37:36;17.05;;;6.03;;
20637;SDS011;10478;49.004;8.470;2024-01-15T18:57:58;11.25;;;6.28;;
20637;SDS011;10478;49.004;8.470;2024-01-15T19:00:23;17.63;;;5.97;;
20637;SDS011;10478;49.004;8.470;2024-01-15T19:02:50;13.32;;;5.85;;
20637;SDS011;10478;49.004;8.470;2024-01-15T19:05:16;16.45;;;6.72;;
20637;SDS011;10478;49.004;8.470;2024-01-15T19:07:42;13.65;;;6.47;;
20637;SDS011;10478;49.004;8.470;2024-01-15T19:10:10;14.32;;;7.32;;
20637;SDS011;10478;49.004;8.470;2024-01-15T19:12:36;14.13;;;6.30;;
20637;SDS011;10478;49.004;8.470;2024-01-15T19:15:02;23.27;;;10.10;;
20637;SDS011;10478;49.004;8.470;2024-01-15T19:17:28;18.02;;;7.35;;
20637;SDS011;10478;49.004;8.470;2024-01-15T19:19:53;14.75;;;6.43;;
20637;SDS011;10478;49.004;8.470;2024-01-15T19:22:19;13.93;;;5.78;;
20637;SDS011;10478;49.004;8.470;2024-01-15T19:24:44;15.38;;;6.30;;
20637;SDS011;10478;49.004;8.470;2024-01-15T19:27:10;11.45;;;6.15;;
20637;SDS011;10478;49.004;8.470;2024-01-15T19:29:35;13.23;;;5.65;;
20637;SDS011;10478;49.004;8.470;2024-01-15T19:32:01;13.27;;;5.97;;
20637;SDS011;10478;49.004;8.470;2024-01-15T19:34:27;13.55;;;5.50;;
20637;SDS011;10478;49.004;8.470;2024-01-15T19:36:53;12.90;;;5.28;;
20637;SDS011;10478;49.004;8.470;2024-01-15T19:39:19;13.27;;;5.72;;
20637;SDS011;10478;49.004;8.470;2024-01-15T19:41:46;11.65;;;5.45;;
20637;SDS011;10478;49.004;8.470;2024-01-15T19:44:12;13.25;;;5.43;;
20637;SDS011;10478;49.004;8.470;2024-01-15T19:46:38;12.95;;;5.57;;
20637;SDS011;10478;49.004;8.470;2024-01-15T19:49:06;11.98;;;5.10;;
20637;SDS011;10478;49.004;8.470;2024-01-15T19:51:32;8.98;;;5.03;;
20637;SDS011;10478;49.004;8.470;2024-01-15T19:53:57;11.15;;;5.05;;
20637;SDS011;10478;49.004;8.470;2024-01-15T19:56:23;11.73;;;5.28;;
20637;SDS011;10478;49.004;8.470;2024-01-15T19:58:48;13.13;;;5.07;;
20637;SDS011;10478;49.004;8.470;2024-01-15T20:06:34;12.98;;;6.13;;
20637;SDS011;10478;49.004;8.470;2024-01-15T20:08:59;26.77;;;10.85;;
20637;SDS011;10478;49.004;8.470;2024-01-15T20:11:25;19.35;;;9.00;;
20637;SDS011;10478;49.004;8.470;2024-01-15T20:13:51;15.18;;;6.25;;
20637;SDS011;10478;49.004;8.470;2024-01-15T20:16:16;10.20;;;5.25;;
20637;SDS011;10478;49.004;8.470;2024-01-15T20:18:42;14.88;;;6.40;;
20637;SDS011;10478;49.004;8.470;2024-01-15T20:21:08;11.50;;;5.20;;
20637;SDS011;10478;49.004;8.470;2024-01-15T20:23:34;13.88;;;6.43;;
20637;SDS011;10478;49.004;8.470;2024-01-15T20:26:04;12.02;;;5.68;;
20637;SDS011;10478;49.004;8.470;2024-01-15T20:28:33;11.52;;;5.93;;
20637;SDS011;10478;49.004;8.470;2024-01-15T20:30:58;11.27;;;5.07;;
20637;SDS011;10478;49.004;8.470;2024-01-15T20:33:24;11.82;;;6.07;;
20637;SDS011;10478;49.004;8.470;2024-01-15T20:35:49;13.27;;;5.85;;
20637;SDS011;10478;49.004;8.470;2024-01-15T20:40:51;16.63;;;6.10;;
20637;SDS011;10478;49.004;8.470;2024-01-15T20:48:26;15.77;;;5.65;;
20637;SDS011;10478;49.004;8.470;2024-01-15T20:50:52;14.98;;;5.93;;
20637;SDS011;10478;49.004;8.470;2024-01-15T20:53:18;11.98;;;6.43;;
20637;SDS011;10478;49.004;8.470;2024-01-15T20:55:53;15.57;;;6.20;;
20637;SDS011;10478;49.004;8.470;2024-01-15T20:58:25;12.38;;;5.25;;
20637;SDS011;10478;49.004;8.470;2024-01-15T21:03:26;16.08;;;5.85;;
20637;SDS011;10478;49.004;8.470;2024-01-15T21:05:52;10.50;;;5.13;;
20637;SDS011;10478;49.004;8.470;2024-01-15T21:08:17;14.98;;;5.13;;
20637;SDS011;10478;49.004;8.470;2024-01-15T21:10:43;10.68;;;5.35;;
20637;SDS011;10478;49.004;8.470;2024-01-15T21:13:08;15.63;;;6.28;;
